sensor_id;sensor_type;location;lat;lon;timestamp;P1;durP1;ratioP1;P2;durP2;ratioP2
3189;SDS011;1606;51.946;10.558;2023-03-13T00:02:17;22.43;;;4.60;;
3189;SDS011;1606;51.946;10.558;2023-03-13T00:04:45;20.87;;;5.30;;
3189;SDS011;1606;51.946;10.558;2023-03-13T00:07:13;23.13;;;5.20;;
3189;SDS011;1606;51.946;10.558;2023-03-13T00:09:41;30.57;;;5.17;;
3189;SDS011;1606;51.946;10.558;2023-03-13T00:12:09;14.70;;;4.17;;
3189;SDS011;1606;51.946;10.558;2023-03-13T00:14:36;13.83;;;4.43;;
3189;SDS011;1606;51.946;10.558;2023-03-13T00:17:04;23.40;;;5.80;;
3189;SDS011;1606;51.946;10.558;2023-03-13T00:19:34;18.13;;;5.37;;
3189;SDS011;1606;51.946;10.558;2023-03-13T00:22:02;21.50;;;5.60;;
3189;SDS011;1606;51.946;10.558;2023-03-13T00:24:30;17.73;;;3.93;;
3189;SDS011;1606;51.946;10.558;2023-03-13T00:26:59;14.83;;;4.60;;
3189;SDS011;1606;51.946;10.558;2023-03-13T00:29:28;19.80;;;4.87;;
3189;SDS011;1606;51.946;10.558;2023-03-13T00:31:56;25.53;;;6.17;;
3189;SDS011;1606;51.946;10.558;2023-03-13T00:34:25;15.00;;;4.40;;
3189;SDS011;1606;51.946;10.558;2023-03-13T00:36:54;13.63;;;4.17;;
3189;SDS011;1606;51.946;10.558;2023-03-13T00:39:23;20.87;;;5.50;;
3189;SDS011;1606;51.946;10.558;2023-03-13T00:41:51;13.73;;;4.10;;
3189;SDS011;1606;51.946;10.558;2023-03-13T00:44:19;17.13;;;4.17;;
3189;SDS011;1606;51.946;10.558;2023-03-13T00:46:47;17.63;;;3.70;;
3189;SDS011;1606;51.946;10.558;2023-03-13T00:49:15;16.90;;;4.00;;
3189;SDS011;1606;51.946;10.558;2023-03-13T00:51:43;17.73;;;3.70;;
3189;SDS011;1606;51.946;10.558;2023-03-13T00:54:12;15.70;;;4.47;;
3189;SDS011;1606;51.946;10.558;2023-03-13T00:56:40;15.83;;;3.80;;
3189;SDS011;1606;51.946;10.558;2023-03-13T00:59:07;21.90;;;5.30;;
3189;SDS011;1606;51.946;10.558;2023-03-13T01:01:35;19.13;;;5.20;;
3189;SDS011;1606;51.946;10.558;2023-03-13T01:04:04;20.73;;;4.63;;
3189;SDS011;1606;51.946;10.558;2023-03-13T01:06:34;19.53;;;5.00;;
3189;SDS011;1606;51.946;10.558;2023-03-13T01:09:03;19.17;;;4.40;;
3189;SDS011;1606;51.946;10.558;2023-03-13T01:11:34;19.23;;;4.00;;
3189;SDS011;1606;51.946;10.558;2023-03-13T01:14:05;19.87;;;5.30;;
3189;SDS011;1606;51.946;10.558;2023-03-13T01:16:35;21.37;;;7.47;;
3189;SDS011;1606;51.946;10.558;2023-03-13T01:19:05;23.87;;;5.43;;
3189;SDS011;1606;51.946;10.558;2023-03-13T01:21:38;24.80;;;6.20;;
3189;SDS011;1606;51.946;10.558;2023-03-13T01:24:06;14.63;;;3.97;;
3189;SDS011;1606;51.946;10.558;2023-03-13T01:26:35;19.00;;;4.60;;
3189;SDS011;1606;51.946;10.558;2023-03-13T01:29:03;20.27;;;6.03;;
3189;SDS011;1606;51.946;10.558;2023-03-13T01:31:31;15.70;;;4.23;;
3189;SDS011;1606;51.946;10.558;2023-03-13T01:34:02;20.23;;;4.60;;
3189;SDS011;1606;51.946;10.558;2023-03-13T01:36:31;21.47;;;4.07;;
3189;SDS011;1606;51.946;10.558;2023-03-13T01:38:59;16.37;;;3.87;;
3189;SDS011;1606;51.946;10.558;2023-03-13T01:41:28;16.17;;;3.83;;
3189;SDS011;1606;51.946;10.558;2023-03-13T01:43:58;22.00;;;4.60;;
3189;SDS011;1606;51.946;10.558;2023-03-13T01:46:26;22.67;;;6.20;;
3189;SDS011;1606;51.946;10.558;2023-03-13T01:48:57;15.30;;;3.80;;
3189;SDS011;1606;51.946;10.558;2023-03-13T01:51:29;12.87;;;3.80;;
3189;SDS011;1606;51.946;10.558;2023-03-13T01:54:02;19.47;;;4.33;;
3189;SDS011;1606;51.946;10.558;2023-03-13T01:56:34;17.47;;;3.80;;
3189;SDS011;1606;51.946;10.558;2023-03-13T01:59:07;25.57;;;4.40;;
3189;SDS011;1606;51.946;10.558;2023-03-13T02:01:39;20.40;;;4.20;;
3189;SDS011;1606;51.946;10.558;2023-03-13T02:04:09;15.63;;;4.27;;
3189;SDS011;1606;51.946;10.558;2023-03-13T02:06:39;17.13;;;4.13;;
3189;SDS011;1606;51.946;10.558;2023-03-13T02:09:09;17.47;;;3.90;;
3189;SDS011;1606;51.946;10.558;2023-03-13T02:11:43;21.50;;;3.83;;
3189;SDS011;1606;51.946;10.558;2023-03-13T02:14:16;16.10;;;4.10;;
3189;SDS011;1606;51.946;10.558;2023-03-13T02:16:47;12.07;;;3.60;;
3189;SDS011;1606;51.946;10.558;2023-03-13T02:19:18;25.97;;;6.03;;
3189;SDS011;1606;51.946;10.558;2023-03-13T02:21:51;25.17;;;4.27;;
3189;SDS011;1606;51.946;10.558;2023-03-13T02:24:24;17.07;;;5.10;;
3189;SDS011;1606;51.946;10.558;2023-03-13T02:27:00;17.33;;;3.80;;
3189;SDS011;1606;51.946;10.558;2023-03-13T02:29:29;22.27;;;4.83;;
3189;SDS011;1606;51.946;10.558;2023-03-13T02:31:57;17.60;;;3.80;;
3189;SDS011;1606;51.946;10.558;2023-03-13T02:34:27;15.50;;;4.53;;
3189;SDS011;1606;51.946;10.558;2023-03-13T02:36:59;22.30;;;4.70;;
3189;SDS011;1606;51.946;10.558;2023-03-13T02:39:30;21.60;;;5.00;;
3189;SDS011;1606;51.946;10.558;2023-03-13T02:42:01;16.80;;;4.83;;
3189;SDS011;1606;51.946;10.558;2023-03-13T02:44:30;17.50;;;4.57;;
3189;SDS011;1606;51.946;10.558;2023-03-13T02:46:57;14.73;;;3.27;;
3189;SDS011;1606;51.946;10.558;2023-03-13T02:49:26;14.40;;;4.00;;
3189;SDS011;1606;51.946;10.558;2023-03-13T02:51:55;17.33;;;4.60;;
3189;SDS011;1606;51.946;10.558;2023-03-13T02:54:26;20.53;;;4.73;;
3189;SDS011;1606;51.946;10.558;2023-03-13T02:56:59;14.57;;;3.67;;
3189;SDS011;1606;51.946;10.558;2023-03-13T02:59:31;21.90;;;3.70;;
3189;SDS011;1606;51.946;10.558;2023-03-13T03:02:00;23.07;;;4.90;;
3189;SDS011;1606;51.946;10.558;2023-03-13T03:04:28;13.80;;;3.50;;
3189;SDS011;1606;51.946;10.558;2023-03-13T03:06:56;21.30;;;3.97;;
3189;SDS011;1606;51.946;10.558;2023-03-13T03:09:24;17.97;;;3.90;;
3189;SDS011;1606;51.946;10.558;2023-03-13T03:11:52;18.50;;;3.20;;
3189;SDS011;1606;51.946;10.558;2023-03-13T03:14:21;22.67;;;3.80;;
3189;SDS011;1606;51.946;10.558;2023-03-13T03:16:49;13.53;;;4.00;;
3189;SDS011;1606;51.946;10.558;2023-03-13T03:19:17;23.93;;;5.00;;
3189;SDS011;1606;51.946;10.558;2023-03-13T03:21:45;23.63;;;4.30;;
3189;SDS011;1606;51.946;10.558;2023-03-13T03:24:14;16.13;;;4.70;;
3189;SDS011;1606;51.946;10.558;2023-03-13T03:26:42;22.97;;;5.67;;
3189;SDS011;1606;51.946;10.558;2023-03-13T03:29:10;17.60;;;5.13;;
3189;SDS011;1606;51.946;10.558;2023-03-13T03:31:40;22.90;;;3.90;;
3189;SDS011;1606;51.946;10.558;2023-03-13T03:34:08;18.60;;;4.27;;
3189;SDS011;1606;51.946;10.558;2023-03-13T03:36:37;17.47;;;4.17;;
3189;SDS011;1606;51.946;10.558;2023-03-13T03:39:05;18.83;;;3.63;;
3189;SDS011;1606;51.946;10.558;2023-03-13T03:41:34;14.83;;;4.20;;
3189;SDS011;1606;51.946;10.558;2023-03-13T03:44:02;21.80;;;4.50;;
3189;SDS011;1606;51.946;10.558;2023-03-13T03:46:30;17.77;;;4.43;;
3189;SDS011;1606;51.946;10.558;2023-03-13T03:48:59;20.27;;;4.57;;
3189;SDS011;1606;51.946;10.558;2023-03-13T03:51:27;23.93;;;4.10;;
3189;SDS011;1606;51.946;10.558;2023-03-13T03:53:55;23.83;;;6.23;;
3189;SDS011;1606;51.946;10.558;2023-03-13T03:56:23;16.73;;;3.83;;
3189;SDS011;1606;51.946;10.558;2023-03-13T03:58:50;21.80;;;4.77;;
3189;SDS011;1606;51.946;10.558;2023-03-13T04:01:18;18.20;;;4.07;;
3189;SDS011;1606;51.946;10.558;2023-03-13T04:03:46;20.17;;;3.73;;
3189;SDS011;1606;51.946;10.558;2023-03-13T04:06:15;16.80;;;3.67;;
3189;SDS011;1606;51.946;10.558;2023-03-13T04:08:43;16.00;;;4.37;;
3189;SDS011;1606;51.946;10.558;2023-03-13T04:11:11;29.07;;;5.10;;
3189;SDS011;1606;51.946;10.558;2023-03-13T04:13:39;22.63;;;3.50;;
3189;SDS011;1606;51.946;10.558;2023-03-13T04:16:07;19.87;;;4.10;;
3189;SDS011;1606;51.946;10.558;2023-03-13T04:18:36;20.53;;;4.80;;
3189;SDS011;1606;51.946;10.558;2023-03-13T04:21:04;23.53;;;4.63;;
3189;SDS011;1606;51.946;10.558;2023-03-13T04:23:33;20.70;;;4.63;;
3189;SDS011;1606;51.946;10.558;2023-03-13T04:26:01;17.07;;;3.47;;
3189;SDS011;1606;51.946;10.558;2023-03-13T04:28:29;23.37;;;4.37;;
3189;SDS011;1606;51.946;10.558;2023-03-13T04:30:56;20.53;;;4.20;;
3189;SDS011;1606;51.946;10.558;2023-03-13T04:33:26;18.17;;;4.00;;
3189;SDS011;1606;51.946;10.558;2023-03-13T04:35:55;15.93;;;3.70;;
3189;SDS011;1606;51.946;10.558;2023-03-13T04:38:24;22.03;;;4.30;;
3189;SDS011;1606;51.946;10.558;2023-03-13T04:40:53;20.43;;;4.40;;
3189;SDS011;1606;51.946;10.558;2023-03-13T04:43:21;15.43;;;3.60;;
3189;SDS011;1606;51.946;10.558;2023-03-13T04:45:50;16.80;;;3.93;;
3189;SDS011;1606;51.946;10.558;2023-03-13T04:48:19;22.63;;;4.20;;
3189;SDS011;1606;51.946;10.558;2023-03-13T04:50:47;24.13;;;4.73;;
3189;SDS011;1606;51.946;10.558;2023-03-13T04:53:15;15.77;;;4.00;;
3189;SDS011;1606;51.946;10.558;2023-03-13T04:55:43;15.20;;;4.10;;
3189;SDS011;1606;51.946;10.558;2023-03-13T04:58:13;17.20;;;3.87;;
3189;SDS011;1606;51.946;10.558;2023-03-13T05:00:41;15.10;;;3.33;;
3189;SDS011;1606;51.946;10.558;2023-03-13T05:03:09;16.23;;;4.00;;
3189;SDS011;1606;51.946;10.558;2023-03-13T05:05:37;12.43;;;4.47;;
3189;SDS011;1606;51.946;10.558;2023-03-13T05:08:05;17.13;;;3.93;;
3189;SDS011;1606;51.946;10.558;2023-03-13T05:10:33;15.50;;;3.20;;
3189;SDS011;1606;51.946;10.558;2023-03-13T05:13:01;16.90;;;3.27;;
3189;SDS011;1606;51.946;10.558;2023-03-13T05:15:30;19.60;;;4.37;;
3189;SDS011;1606;51.946;10.558;2023-03-13T05:17:58;14.73;;;3.00;;
3189;SDS011;1606;51.946;10.558;2023-03-13T05:20:26;14.97;;;3.03;;
3189;SDS011;1606;51.946;10.558;2023-03-13T05:22:53;11.80;;;2.50;;
3189;SDS011;1606;51.946;10.558;2023-03-13T05:25:21;7.90;;;1.80;;
3189;SDS011;1606;51.946;10.558;2023-03-13T05:27:49;10.77;;;2.70;;
3189;SDS011;1606;51.946;10.558;2023-03-13T05:30:17;8.40;;;2.13;;
3189;SDS011;1606;51.946;10.558;2023-03-13T05:32:46;11.87;;;2.47;;
3189;SDS011;1606;51.946;10.558;2023-03-13T05:35:14;12.43;;;2.67;;
3189;SDS011;1606;51.946;10.558;2023-03-13T05:37:42;9.57;;;2.33;;
3189;SDS011;1606;51.946;10.558;2023-03-13T05:40:11;10.50;;;2.03;;
3189;SDS011;1606;51.946;10.558;2023-03-13T05:42:39;10.83;;;2.00;;
3189;SDS011;1606;51.946;10.558;2023-03-13T05:45:07;15.40;;;3.00;;
3189;SDS011;1606;51.946;10.558;2023-03-13T05:47:36;8.77;;;2.43;;
3189;SDS011;1606;51.946;10.558;2023-03-13T05:50:06;8.73;;;2.23;;
3189;SDS011;1606;51.946;10.558;2023-03-13T05:52:35;8.47;;;2.33;;
3189;SDS011;1606;51.946;10.558;2023-03-13T05:55:03;8.60;;;2.43;;
3189;SDS011;1606;51.946;10.558;2023-03-13T05:57:31;10.20;;;2.40;;
3189;SDS011;1606;51.946;10.558;2023-03-13T05:59:59;9.50;;;2.13;;
3189;SDS011;1606;51.946;10.558;2023-03-13T06:02:27;10.80;;;1.90;;
3189;SDS011;1606;51.946;10.558;2023-03-13T06:04:55;7.97;;;2.27;;
3189;SDS011;1606;51.946;10.558;2023-03-13T06:07:24;7.80;;;1.97;;
3189;SDS011;1606;51.946;10.558;2023-03-13T06:09:52;8.67;;;2.50;;
3189;SDS011;1606;51.946;10.558;2023-03-13T06:12:20;8.30;;;1.90;;
3189;SDS011;1606;51.946;10.558;2023-03-13T06:14:48;8.23;;;1.70;;
3189;SDS011;1606;51.946;10.558;2023-03-13T06:17:16;10.20;;;1.97;;
3189;SDS011;1606;51.946;10.558;2023-03-13T06:19:44;10.63;;;2.23;;
3189;SDS011;1606;51.946;10.558;2023-03-13T06:22:12;9.93;;;2.47;;
3189;SDS011;1606;51.946;10.558;2023-03-13T06:24:44;15.17;;;2.37;;
3189;SDS011;1606;51.946;10.558;2023-03-13T06:27:14;15.43;;;2.63;;
3189;SDS011;1606;51.946;10.558;2023-03-13T06:29:42;9.20;;;2.70;;
3189;SDS011;1606;51.946;10.558;2023-03-13T06:32:09;13.90;;;2.90;;
3189;SDS011;1606;51.946;10.558;2023-03-13T06:34:37;10.87;;;2.40;;
3189;SDS011;1606;51.946;10.558;2023-03-13T06:37:05;9.52;;;2.65;;
3189;SDS011;1606;51.946;10.558;2023-03-13T06:39:33;12.00;;;2.63;;
3189;SDS011;1606;51.946;10.558;2023-03-13T06:42:02;11.80;;;2.03;;
3189;SDS011;1606;51.946;10.558;2023-03-13T06:44:31;8.30;;;1.97;;
3189;SDS011;1606;51.946;10.558;2023-03-13T06:46:58;9.80;;;2.90;;
3189;SDS011;1606;51.946;10.558;2023-03-13T06:49:26;14.53;;;2.40;;
3189;SDS011;1606;51.946;10.558;2023-03-13T06:51:55;6.77;;;1.70;;
3189;SDS011;1606;51.946;10.558;2023-03-13T06:54:24;7.63;;;2.00;;
3189;SDS011;1606;51.946;10.558;2023-03-13T06:56:52;6.97;;;1.80;;
3189;SDS011;1606;51.946;10.558;2023-03-13T06:59:22;10.43;;;1.97;;
3189;SDS011;1606;51.946;10.558;2023-03-13T07:01:49;8.40;;;2.27;;
3189;SDS011;1606;51.946;10.558;2023-03-13T07:04:17;8.60;;;1.80;;
3189;SDS011;1606;51.946;10.558;2023-03-13T07:06:45;8.83;;;1.80;;
3189;SDS011;1606;51.946;10.558;2023-03-13T07:09:14;6.57;;;1.70;;
3189;SDS011;1606;51.946;10.558;2023-03-13T07:11:41;8.20;;;2.13;;
3189;SDS011;1606;51.946;10.558;2023-03-13T07:14:09;8.00;;;1.80;;
3189;SDS011;1606;51.946;10.558;2023-03-13T07:16:44;8.83;;;2.10;;
3189;SDS011;1606;51.946;10.558;2023-03-13T07:19:12;8.53;;;2.23;;
3189;SDS011;1606;51.946;10.558;2023-03-13T07:21:40;8.43;;;2.57;;
3189;SDS011;1606;51.946;10.558;2023-03-13T07:24:09;7.60;;;1.70;;
3189;SDS011;1606;51.946;10.558;2023-03-13T07:26:37;8.20;;;1.80;;
3189;SDS011;1606;51.946;10.558;2023-03-13T07:29:13;8.20;;;1.77;;
3189;SDS011;1606;51.946;10.558;2023-03-13T07:31:41;12.37;;;2.10;;
3189;SDS011;1606;51.946;10.558;2023-03-13T07:34:10;6.63;;;1.50;;
3189;SDS011;1606;51.946;10.558;2023-03-13T07:36:38;6.20;;;1.50;;
3189;SDS011;1606;51.946;10.558;2023-03-13T07:39:07;6.73;;;1.40;;
3189;SDS011;1606;51.946;10.558;2023-03-13T07:41:34;10.50;;;1.60;;
3189;SDS011;1606;51.946;10.558;2023-03-13T07:44:05;8.60;;;2.00;;
3189;SDS011;1606;51.946;10.558;2023-03-13T07:46:32;9.00;;;1.20;;
3189;SDS011;1606;51.946;10.558;2023-03-13T07:49:01;6.13;;;1.40;;
3189;SDS011;1606;51.946;10.558;2023-03-13T07:51:29;8.33;;;1.60;;
3189;SDS011;1606;51.946;10.558;2023-03-13T07:54:08;12.10;;;1.80;;
3189;SDS011;1606;51.946;10.558;2023-03-13T07:56:37;7.57;;;1.80;;
3189;SDS011;1606;51.946;10.558;2023-03-13T07:59:05;7.40;;;1.53;;
3189;SDS011;1606;51.946;10.558;2023-03-13T08:01:33;6.00;;;1.27;;
3189;SDS011;1606;51.946;10.558;2023-03-13T08:04:02;9.77;;;1.90;;
3189;SDS011;1606;51.946;10.558;2023-03-13T08:06:31;7.40;;;1.83;;
3189;SDS011;1606;51.946;10.558;2023-03-13T08:09:00;6.73;;;1.40;;
3189;SDS011;1606;51.946;10.558;2023-03-13T08:11:30;9.43;;;1.20;;
3189;SDS011;1606;51.946;10.558;2023-03-13T08:13:58;6.63;;;1.50;;
3189;SDS011;1606;51.946;10.558;2023-03-13T08:16:26;5.50;;;1.20;;
3189;SDS011;1606;51.946;10.558;2023-03-13T08:18:56;6.90;;;1.40;;
3189;SDS011;1606;51.946;10.558;2023-03-13T08:21:26;10.93;;;2.00;;
3189;SDS011;1606;51.946;10.558;2023-03-13T08:23:56;6.53;;;1.37;;
3189;SDS011;1606;51.946;10.558;2023-03-13T08:26:26;6.50;;;2.03;;
3189;SDS011;1606;51.946;10.558;2023-03-13T08:28:55;7.30;;;1.70;;
3189;SDS011;1606;51.946;10.558;2023-03-13T08:31:26;6.00;;;1.40;;
3189;SDS011;1606;51.946;10.558;2023-03-13T08:33:55;6.70;;;1.40;;
3189;SDS011;1606;51.946;10.558;2023-03-13T08:36:26;7.93;;;2.57;;
3189;SDS011;1606;51.946;10.558;2023-03-13T08:38:57;5.80;;;1.60;;
3189;SDS011;1606;51.946;10.558;2023-03-13T08:41:26;6.10;;;1.50;;
3189;SDS011;1606;51.946;10.558;2023-03-13T08:43:55;9.07;;;2.07;;
3189;SDS011;1606;51.946;10.558;2023-03-13T08:46:25;6.73;;;1.77;;
3189;SDS011;1606;51.946;10.558;2023-03-13T08:48:55;8.10;;;1.60;;
3189;SDS011;1606;51.946;10.558;2023-03-13T08:51:24;5.70;;;1.40;;
3189;SDS011;1606;51.946;10.558;2023-03-13T08:53:54;8.53;;;1.83;;
3189;SDS011;1606;51.946;10.558;2023-03-13T08:56:23;7.37;;;1.60;;
3189;SDS011;1606;51.946;10.558;2023-03-13T08:58:54;5.53;;;1.30;;
3189;SDS011;1606;51.946;10.558;2023-03-13T09:01:23;6.93;;;1.50;;
3189;SDS011;1606;51.946;10.558;2023-03-13T09:03:52;6.70;;;1.10;;
3189;SDS011;1606;51.946;10.558;2023-03-13T09:06:21;5.60;;;1.30;;
3189;SDS011;1606;51.946;10.558;2023-03-13T09:08:50;5.60;;;1.27;;
3189;SDS011;1606;51.946;10.558;2023-03-13T09:11:19;6.90;;;1.60;;
3189;SDS011;1606;51.946;10.558;2023-03-13T09:13:48;6.17;;;1.60;;
3189;SDS011;1606;51.946;10.558;2023-03-13T09:16:18;6.47;;;1.70;;
3189;SDS011;1606;51.946;10.558;2023-03-13T09:18:48;6.50;;;1.27;;
3189;SDS011;1606;51.946;10.558;2023-03-13T09:21:17;6.63;;;1.57;;
3189;SDS011;1606;51.946;10.558;2023-03-13T09:23:46;6.10;;;1.57;;
3189;SDS011;1606;51.946;10.558;2023-03-13T09:26:15;6.50;;;1.40;;
3189;SDS011;1606;51.946;10.558;2023-03-13T09:28:47;5.83;;;1.20;;
3189;SDS011;1606;51.946;10.558;2023-03-13T09:31:15;5.40;;;1.30;;
3189;SDS011;1606;51.946;10.558;2023-03-13T09:33:46;7.17;;;1.30;;
3189;SDS011;1606;51.946;10.558;2023-03-13T09:36:15;5.57;;;1.07;;
3189;SDS011;1606;51.946;10.558;2023-03-13T09:38:47;5.30;;;1.33;;
3189;SDS011;1606;51.946;10.558;2023-03-13T09:41:21;7.20;;;1.50;;
3189;SDS011;1606;51.946;10.558;2023-03-13T09:43:52;5.30;;;1.60;;
3189;SDS011;1606;51.946;10.558;2023-03-13T09:46:27;7.00;;;1.40;;
3189;SDS011;1606;51.946;10.558;2023-03-13T09:49:04;5.20;;;1.43;;
3189;SDS011;1606;51.946;10.558;2023-03-13T09:51:38;5.90;;;1.63;;
3189;SDS011;1606;51.946;10.558;2023-03-13T09:54:12;5.97;;;1.60;;
3189;SDS011;1606;51.946;10.558;2023-03-13T09:56:51;6.10;;;1.70;;
3189;SDS011;1606;51.946;10.558;2023-03-13T09:59:23;6.03;;;1.83;;
3189;SDS011;1606;51.946;10.558;2023-03-13T10:01:59;7.93;;;1.60;;
3189;SDS011;1606;51.946;10.558;2023-03-13T10:04:31;6.03;;;1.60;;
3189;SDS011;1606;51.946;10.558;2023-03-13T10:07:08;6.47;;;1.43;;
3189;SDS011;1606;51.946;10.558;2023-03-13T10:09:37;5.80;;;1.83;;
3189;SDS011;1606;51.946;10.558;2023-03-13T10:12:10;6.60;;;1.60;;
3189;SDS011;1606;51.946;10.558;2023-03-13T10:14:42;5.40;;;1.40;;
3189;SDS011;1606;51.946;10.558;2023-03-13T10:17:19;7.20;;;1.37;;
3189;SDS011;1606;51.946;10.558;2023-03-13T10:19:57;6.93;;;2.00;;
3189;SDS011;1606;51.946;10.558;2023-03-13T10:22:27;5.43;;;1.63;;
3189;SDS011;1606;51.946;10.558;2023-03-13T10:24:57;7.50;;;2.10;;
3189;SDS011;1606;51.946;10.558;2023-03-13T10:27:28;11.07;;;1.40;;
3189;SDS011;1606;51.946;10.558;2023-03-13T10:29:56;7.20;;;1.70;;
3189;SDS011;1606;51.946;10.558;2023-03-13T10:32:25;5.80;;;1.90;;
3189;SDS011;1606;51.946;10.558;2023-03-13T10:34:54;5.40;;;1.53;;
3189;SDS011;1606;51.946;10.558;2023-03-13T10:37:26;5.33;;;1.47;;
3189;SDS011;1606;51.946;10.558;2023-03-13T10:40:11;5.60;;;1.67;;
3189;SDS011;1606;51.946;10.558;2023-03-13T10:42:43;5.67;;;1.23;;
3189;SDS011;1606;51.946;10.558;2023-03-13T10:45:13;5.80;;;1.63;;
3189;SDS011;1606;51.946;10.558;2023-03-13T10:47:43;8.10;;;1.70;;
3189;SDS011;1606;51.946;10.558;2023-03-13T10:50:16;5.80;;;1.90;;
3189;SDS011;1606;51.946;10.558;2023-03-13T10:52:47;8.40;;;1.30;;
3189;SDS011;1606;51.946;10.558;2023-03-13T10:55:16;6.20;;;1.50;;
3189;SDS011;1606;51.946;10.558;2023-03-13T10:57:53;8.40;;;1.90;;
3189;SDS011;1606;51.946;10.558;2023-03-13T11:00:27;6.87;;;1.57;;
3189;SDS011;1606;51.946;10.558;2023-03-13T11:02:59;10.10;;;1.90;;
3189;SDS011;1606;51.946;10.558;2023-03-13T11:05:29;6.90;;;1.60;;
3189;SDS011;1606;51.946;10.558;2023-03-13T11:08:09;5.67;;;1.30;;
3189;SDS011;1606;51.946;10.558;2023-03-13T11:10:57;5.90;;;1.47;;
3189;SDS011;1606;51.946;10.558;2023-03-13T11:13:28;9.07;;;1.43;;
3189;SDS011;1606;51.946;10.558;2023-03-13T11:16:12;6.30;;;1.53;;
3189;SDS011;1606;51.946;10.558;2023-03-13T11:18:50;4.97;;;1.60;;
3189;SDS011;1606;51.946;10.558;2023-03-13T11:21:36;9.70;;;1.67;;
3189;SDS011;1606;51.946;10.558;2023-03-13T11:24:12;6.20;;;1.20;;
3189;SDS011;1606;51.946;10.558;2023-03-13T11:26:45;5.40;;;1.50;;
3189;SDS011;1606;51.946;10.558;2023-03-13T11:29:33;5.20;;;1.50;;
3189;SDS011;1606;51.946;10.558;2023-03-13T11:32:12;6.70;;;1.60;;
3189;SDS011;1606;51.946;10.558;2023-03-13T11:34:50;5.30;;;1.20;;
3189;SDS011;1606;51.946;10.558;2023-03-13T11:37:20;5.53;;;1.57;;
3189;SDS011;1606;51.946;10.558;2023-03-13T11:39:52;5.60;;;1.60;;
3189;SDS011;1606;51.946;10.558;2023-03-13T11:42:36;6.40;;;1.50;;
3189;SDS011;1606;51.946;10.558;2023-03-13T11:45:40;7.60;;;1.50;;
3189;SDS011;1606;51.946;10.558;2023-03-13T11:48:30;6.10;;;1.67;;
3189;SDS011;1606;51.946;10.558;2023-03-13T11:51:11;6.93;;;1.83;;
3189;SDS011;1606;51.946;10.558;2023-03-13T11:53:55;6.30;;;1.30;;
3189;SDS011;1606;51.946;10.558;2023-03-13T11:56:38;5.30;;;1.10;;
3189;SDS011;1606;51.946;10.558;2023-03-13T11:59:17;6.43;;;1.50;;
3189;SDS011;1606;51.946;10.558;2023-03-13T12:01:54;5.60;;;1.63;;
3189;SDS011;1606;51.946;10.558;2023-03-13T12:04:27;5.70;;;1.70;;
3189;SDS011;1606;51.946;10.558;2023-03-13T12:07:01;6.23;;;1.37;;
3189;SDS011;1606;51.946;10.558;2023-03-13T12:09:32;5.90;;;1.80;;
3189;SDS011;1606;51.946;10.558;2023-03-13T12:12:10;5.47;;;1.37;;
3189;SDS011;1606;51.946;10.558;2023-03-13T12:14:43;6.13;;;1.80;;
3189;SDS011;1606;51.946;10.558;2023-03-13T12:17:28;6.33;;;1.70;;
3189;SDS011;1606;51.946;10.558;2023-03-13T12:20:00;8.30;;;1.50;;
3189;SDS011;1606;51.946;10.558;2023-03-13T12:22:35;7.10;;;1.77;;
3189;SDS011;1606;51.946;10.558;2023-03-13T12:25:09;6.43;;;1.57;;
3189;SDS011;1606;51.946;10.558;2023-03-13T12:27:44;5.97;;;1.67;;
3189;SDS011;1606;51.946;10.558;2023-03-13T12:30:21;6.37;;;1.60;;
3189;SDS011;1606;51.946;10.558;2023-03-13T12:33:03;7.27;;;1.47;;
3189;SDS011;1606;51.946;10.558;2023-03-13T12:35:43;6.03;;;1.43;;
3189;SDS011;1606;51.946;10.558;2023-03-13T12:38:15;6.80;;;2.00;;
3189;SDS011;1606;51.946;10.558;2023-03-13T12:40:48;5.30;;;1.50;;
3189;SDS011;1606;51.946;10.558;2023-03-13T12:43:23;5.90;;;1.80;;
3189;SDS011;1606;51.946;10.558;2023-03-13T12:46:05;5.90;;;1.60;;
3189;SDS011;1606;51.946;10.558;2023-03-13T12:48:58;6.53;;;1.60;;
3189;SDS011;1606;51.946;10.558;2023-03-13T12:51:47;7.70;;;1.70;;
3189;SDS011;1606;51.946;10.558;2023-03-13T12:54:28;9.47;;;1.53;;
3189;SDS011;1606;51.946;10.558;2023-03-13T12:57:14;6.37;;;2.03;;
3189;SDS011;1606;51.946;10.558;2023-03-13T13:00:02;5.97;;;1.50;;
3189;SDS011;1606;51.946;10.558;2023-03-13T13:02:38;5.53;;;1.47;;
3189;SDS011;1606;51.946;10.558;2023-03-13T13:05:15;6.00;;;1.60;;
3189;SDS011;1606;51.946;10.558;2023-03-13T13:07:51;6.93;;;1.37;;
3189;SDS011;1606;51.946;10.558;2023-03-13T13:10:21;5.63;;;1.47;;
3189;SDS011;1606;51.946;10.558;2023-03-13T13:15:45;5.03;;;1.23;;
3189;SDS011;1606;51.946;10.558;2023-03-13T13:18:25;9.97;;;1.17;;
3189;SDS011;1606;51.946;10.558;2023-03-13T13:23:52;5.50;;;1.60;;
3189;SDS011;1606;51.946;10.558;2023-03-13T13:32:28;5.57;;;1.07;;
3189;SDS011;1606;51.946;10.558;2023-03-13T13:35:09;9.10;;;1.53;;
3189;SDS011;1606;51.946;10.558;2023-03-13T13:37:47;6.20;;;1.40;;
3189;SDS011;1606;51.946;10.558;2023-03-13T13:40:27;5.20;;;1.17;;
3189;SDS011;1606;51.946;10.558;2023-03-13T13:42:57;7.00;;;1.20;;
3189;SDS011;1606;51.946;10.558;2023-03-13T13:45:27;7.00;;;1.10;;
3189;SDS011;1606;51.946;10.558;2023-03-13T13:48:22;6.23;;;1.40;;
3189;SDS011;1606;51.946;10.558;2023-03-13T13:51:20;6.40;;;1.30;;
3189;SDS011;1606;51.946;10.558;2023-03-13T13:53:52;7.07;;;1.40;;
3189;SDS011;1606;51.946;10.558;2023-03-13T13:56:28;5.30;;;1.10;;
3189;SDS011;1606;51.946;10.558;2023-03-13T13:59:04;5.27;;;1.03;;
3189;SDS011;1606;51.946;10.558;2023-03-13T14:02:11;5.30;;;1.20;;
3189;SDS011;1606;51.946;10.558;2023-03-13T14:04:43;5.40;;;0.90;;
3189;SDS011;1606;51.946;10.558;2023-03-13T14:07:16;5.90;;;1.37;;
3189;SDS011;1606;51.946;10.558;2023-03-13T14:09:52;7.80;;;1.23;;
3189;SDS011;1606;51.946;10.558;2023-03-13T14:12:27;5.40;;;1.10;;
3189;SDS011;1606;51.946;10.558;2023-03-13T14:15:06;5.00;;;1.27;;
3189;SDS011;1606;51.946;10.558;2023-03-13T14:17:39;6.87;;;1.20;;
3189;SDS011;1606;51.946;10.558;2023-03-13T14:20:19;4.70;;;0.90;;
3189;SDS011;1606;51.946;10.558;2023-03-13T14:22:52;5.80;;;1.30;;
3189;SDS011;1606;51.946;10.558;2023-03-13T14:25:23;4.70;;;1.00;;
3189;SDS011;1606;51.946;10.558;2023-03-13T14:27:52;5.80;;;1.43;;
3189;SDS011;1606;51.946;10.558;2023-03-13T14:30:21;5.30;;;1.30;;
3189;SDS011;1606;51.946;10.558;2023-03-13T14:32:50;6.83;;;1.07;;
3189;SDS011;1606;51.946;10.558;2023-03-13T14:35:19;5.00;;;1.10;;
3189;SDS011;1606;51.946;10.558;2023-03-13T14:37:49;5.90;;;1.20;;
3189;SDS011;1606;51.946;10.558;2023-03-13T14:40:20;5.80;;;1.20;;
3189;SDS011;1606;51.946;10.558;2023-03-13T14:42:52;6.60;;;1.37;;
3189;SDS011;1606;51.946;10.558;2023-03-13T14:45:24;5.10;;;1.10;;
3189;SDS011;1606;51.946;10.558;2023-03-13T14:47:59;5.07;;;1.03;;
3189;SDS011;1606;51.946;10.558;2023-03-13T14:50:29;4.90;;;1.10;;
3189;SDS011;1606;51.946;10.558;2023-03-13T14:52:58;5.30;;;1.50;;
3189;SDS011;1606;51.946;10.558;2023-03-13T14:55:32;5.40;;;1.50;;
3189;SDS011;1606;51.946;10.558;2023-03-13T14:58:19;5.30;;;1.10;;
3189;SDS011;1606;51.946;10.558;2023-03-13T15:00:53;4.80;;;0.90;;
3189;SDS011;1606;51.946;10.558;2023-03-13T15:03:28;6.50;;;1.03;;
3189;SDS011;1606;51.946;10.558;2023-03-13T15:06:01;5.93;;;0.87;;
3189;SDS011;1606;51.946;10.558;2023-03-13T15:08:41;13.20;;;1.40;;
3189;SDS011;1606;51.946;10.558;2023-03-13T15:11:23;4.90;;;1.07;;
3189;SDS011;1606;51.946;10.558;2023-03-13T15:13:54;5.10;;;1.13;;
3189;SDS011;1606;51.946;10.558;2023-03-13T15:16:23;5.87;;;1.07;;
3189;SDS011;1606;51.946;10.558;2023-03-13T15:18:52;5.17;;;1.53;;
3189;SDS011;1606;51.946;10.558;2023-03-13T15:21:22;4.83;;;1.03;;
3189;SDS011;1606;51.946;10.558;2023-03-13T15:23:57;5.90;;;0.90;;
3189;SDS011;1606;51.946;10.558;2023-03-13T15:26:29;5.07;;;1.23;;
3189;SDS011;1606;51.946;10.558;2023-03-13T15:28:56;5.43;;;1.10;;
3189;SDS011;1606;51.946;10.558;2023-03-13T15:31:25;5.27;;;1.20;;
3189;SDS011;1606;51.946;10.558;2023-03-13T15:33:55;5.30;;;1.10;;